Terminal Aerodrome Forecast
Issued by NWS Honolulu, HI

Home | Current Version | Previous Version | Text Only | Print | Product List | Glossary On
Versions: 1 2 3 4 5 6 7 8 9 10 11 12 13 14 15 16 17 18 19 20 21 22 23 24 25 26 27 28 29 30 31 32 33 34 35 36 37 38 39 40 41 42 43 44 45 46
259
FTPA31 PHFO 250905 AAA
TAFHNL
TAF AMD
PHNL 250905Z 2509/2612 06010KT P6SM FEW025 SCT050 BKN250
      TEMPO 2509/2512 06010G18KT
     FM251900 06015G25KT P6SM FEW025 SCT050 BKN250
     FM260600 06010KT P6SM FEW025 SCT050 BKN250
      TEMPO 2606/2608 06010G18KT=

USA.gov is the U.S. government's official web portal to all federal, state and local government web resources and services.